Time;durP1;ratioP1;P1;durP2;ratioP2;P2;SDS_P1;SDS_P2;PMS_P1;PMS_P2;Temp;Humidity;BMP_temperature;BMP_pressure;BME280_temperature;BME280_humidity;BME280_pressure;Samples;Min_cycle;Max_cycle;Signal;HPM_P1;HPM_P2
2024/02/29 00:01:28;;;;;;;5.38;2.95;;;5.30;99.90;;;;;;4997620;28;20056;-91
2024/02/29 00:03:53;;;;;;;4.30;2.20;;;5.20;99.90;;;;;;4999765;28;20120;-93
2024/02/29 00:06:19;;;;;;;6.57;3.63;;;5.20;99.90;;;;;;4999925;28;20422;-92
2024/02/29 00:08:45;;;;;;;6.30;3.95;;;5.30;99.90;;;;;;5010248;28;20553;-91
2024/02/29 00:11:11;;;;;;;5.47;3.22;;;5.30;99.90;;;;;;5030878;28;20048;-91
2024/02/29 00:13:36;;;;;;;6.03;3.33;;;5.30;99.90;;;;;;5013092;28;20060;-95
2024/02/29 00:16:02;;;;;;;5.60;3.03;;;5.30;99.90;;;;;;5009402;28;20042;-92
2024/02/29 00:18:28;;;;;;;8.27;3.78;;;5.30;99.90;;;;;;5012321;28;20028;-90
2024/02/29 00:20:53;;;;;;;6.82;2.78;;;5.20;99.90;;;;;;5033214;28;20116;-91
2024/02/29 00:23:19;;;;;;;5.57;2.88;;;5.20;99.90;;;;;;5013967;28;20029;-90
2024/02/29 00:25:45;;;;;;;3.88;2.63;;;5.20;99.90;;;;;;5013573;28;20108;-91
2024/02/29 00:28:11;;;;;;;8.05;3.85;;;5.10;99.90;;;;;;5013465;28;20026;-90
2024/02/29 00:30:36;;;;;;;6.68;4.18;;;5.10;99.90;;;;;;5003495;28;20441;-90
2024/02/29 00:33:03;;;;;;;5.45;3.33;;;5.20;99.90;;;;;;5016467;28;20034;-90
2024/02/29 00:35:31;;;;;;;5.05;2.75;;;5.10;99.90;;;;;;5010841;28;20521;-92
2024/02/29 00:37:57;;;;;;;5.88;2.72;;;5.10;99.90;;;;;;5007484;28;20122;-93
2024/02/29 00:40:23;;;;;;;8.98;3.83;;;5.10;99.90;;;;;;4998355;28;20034;-87
2024/02/29 00:42:49;;;;;;;6.13;3.60;;;5.10;99.90;;;;;;5018387;28;20431;-90
2024/02/29 00:45:15;;;;;;;5.03;3.08;;;5.10;99.90;;;;;;5011307;28;20084;-91
2024/02/29 00:47:41;;;;;;;6.43;3.03;;;5.10;99.90;;;;;;5013935;28;20022;-92
2024/02/29 00:50:07;;;;;;;4.60;2.65;;;5.10;99.90;;;;;;5017746;28;20033;-89
2024/02/29 00:52:32;;;;;;;5.13;2.78;;;5.00;99.90;;;;;;5011869;28;20367;-90
2024/02/29 00:55:00;;;;;;;4.88;2.90;;;5.00;99.90;;;;;;5010611;28;20037;-90
2024/02/29 00:57:26;;;;;;;8.23;4.15;;;5.10;99.90;;;;;;4998585;28;20033;-92
2024/02/29 00:59:52;;;;;;;6.75;3.47;;;5.10;99.90;;;;;;5030163;28;20026;-91
2024/02/29 01:02:17;;;;;;;8.05;4.32;;;5.10;99.90;;;;;;5015170;28;20455;-89
2024/02/29 01:04:43;;;;;;;5.65;3.80;;;5.10;99.90;;;;;;5013567;28;20072;-91
2024/02/29 01:07:08;;;;;;;6.18;3.47;;;5.10;99.90;;;;;;5015111;28;20029;-91
2024/02/29 01:09:34;;;;;;;5.78;3.38;;;5.10;99.90;;;;;;5015601;28;20034;-91
2024/02/29 01:12:00;;;;;;;6.85;3.40;;;5.00;99.90;;;;;;5016411;28;20462;-90
2024/02/29 01:14:26;;;;;;;6.93;3.35;;;5.00;99.90;;;;;;5009773;28;20026;-89
2024/02/29 01:16:53;;;;;;;6.57;3.33;;;5.00;99.90;;;;;;5012364;28;20038;-92
2024/02/29 01:19:19;;;;;;;8.88;4.93;;;5.00;99.90;;;;;;5011359;28;20026;-91
2024/02/29 01:21:45;;;;;;;6.78;3.60;;;5.00;99.90;;;;;;5019278;28;20457;-88
2024/02/29 01:24:11;;;;;;;7.45;3.78;;;5.10;99.90;;;;;;4996622;28;20544;-89
2024/02/29 01:26:36;;;;;;;6.15;3.45;;;5.00;99.90;;;;;;5000795;28;20491;-93
2024/02/29 01:29:02;;;;;;;7.78;4.10;;;5.10;99.90;;;;;;5010433;28;20037;-91
2024/02/29 01:31:28;;;;;;;7.38;3.78;;;5.20;99.90;;;;;;4997947;28;20112;-89
2024/02/29 01:33:54;;;;;;;6.35;2.97;;;5.20;99.90;;;;;;4998223;28;20083;-92
2024/02/29 01:36:20;;;;;;;6.40;3.40;;;5.20;99.90;;;;;;4996504;28;20057;-91
2024/02/29 01:38:45;;;;;;;9.27;4.45;;;5.20;99.90;;;;;;5013125;28;20025;-93
2024/02/29 01:41:11;;;;;;;9.50;4.63;;;5.30;99.90;;;;;;5026985;28;20183;-94
2024/02/29 01:43:37;;;;;;;8.90;4.75;;;5.40;99.90;;;;;;4998140;28;20484;-90
2024/02/29 01:46:13;;;;;;;9.43;4.32;;;5.40;99.90;;;;;;5010231;28;20386;-90
2024/02/29 01:48:40;;;;;;;9.30;4.28;;;5.40;99.90;;;;;;5007424;28;20026;-90
2024/02/29 01:51:08;;;;;;;9.57;5.35;;;5.40;99.90;;;;;;4994877;28;20064;-90
2024/02/29 01:53:34;;;;;;;10.10;5.10;;;5.50;99.90;;;;;;5009523;28;20026;-91
2024/02/29 01:56:00;;;;;;;10.35;5.72;;;5.60;99.90;;;;;;4995303;28;20034;-90
2024/02/29 01:58:26;;;;;;;9.65;5.47;;;5.50;99.90;;;;;;4995144;28;20476;-90
2024/02/29 02:00:52;;;;;;;10.93;6.18;;;5.60;99.90;;;;;;5011576;28;20125;-91
2024/02/29 02:03:18;;;;;;;10.30;5.63;;;5.60;99.90;;;;;;5026469;28;20128;-91
2024/02/29 02:05:44;;;;;;;8.85;3.95;;;5.60;99.90;;;;;;5013482;28;20491;-90
2024/02/29 02:08:11;;;;;;;8.48;4.63;;;5.50;99.90;;;;;;5011708;28;20038;-91
2024/02/29 02:10:37;;;;;;;11.93;4.82;;;5.70;99.90;;;;;;5014642;28;20037;-92
2024/02/29 02:13:03;;;;;;;8.77;4.07;;;5.60;99.90;;;;;;5015106;28;20041;-92
2024/02/29 02:15:29;;;;;;;9.63;5.07;;;5.60;99.90;;;;;;5010091;28;20053;-95
2024/02/29 02:17:55;;;;;;;9.95;4.63;;;5.60;99.90;;;;;;5013268;28;20032;-91
2024/02/29 02:20:21;;;;;;;8.68;4.10;;;5.60;99.90;;;;;;5011758;28;20411;-92
2024/02/29 02:22:47;;;;;;;10.05;4.57;;;5.70;99.90;;;;;;5008094;28;20477;-91
2024/02/29 02:25:12;;;;;;;7.82;4.13;;;5.70;99.90;;;;;;5014395;28;20482;-91
2024/02/29 02:27:41;;;;;;;8.13;4.22;;;5.70;99.90;;;;;;4996127;28;20026;-91
2024/02/29 02:30:07;;;;;;;10.18;5.78;;;5.60;99.90;;;;;;5017220;28;20018;-91
2024/02/29 02:32:34;;;;;;;10.40;5.40;;;5.70;99.90;;;;;;5007334;28;20064;-92
2024/02/29 02:35:00;;;;;;;11.40;5.70;;;5.70;99.90;;;;;;5011799;28;20420;-94
2024/02/29 02:37:27;;;;;;;8.80;4.47;;;5.70;99.90;;;;;;5010575;28;20103;-90
2024/02/29 02:39:52;;;;;;;8.10;4.30;;;5.70;99.90;;;;;;5036345;28;20389;-92
2024/02/29 02:42:18;;;;;;;7.55;3.88;;;5.70;99.90;;;;;;5010980;28;20061;-95
2024/02/29 02:44:44;;;;;;;9.95;4.25;;;5.70;99.90;;;;;;5000293;28;20087;-92
2024/02/29 02:47:09;;;;;;;11.10;5.18;;;5.70;99.90;;;;;;5014988;28;20034;-94
2024/02/29 02:49:35;;;;;;;8.82;4.38;;;5.70;99.90;;;;;;5022142;28;20116;-92
2024/02/29 02:52:01;;;;;;;7.90;3.97;;;5.70;99.90;;;;;;5009136;28;20159;-92
2024/02/29 02:54:26;;;;;;;6.18;3.83;;;5.60;99.90;;;;;;5017547;28;20075;-93
2024/02/29 02:56:52;;;;;;;10.48;4.60;;;5.70;99.90;;;;;;5031650;28;20045;-92
2024/02/29 02:59:18;;;;;;;11.02;5.50;;;5.70;99.90;;;;;;5009846;28;20030;-91
2024/02/29 03:01:44;;;;;;;8.93;4.72;;;5.70;99.90;;;;;;5014984;28;20033;-89
2024/02/29 03:04:12;;;;;;;9.10;4.15;;;5.70;99.90;;;;;;5017054;28;20347;-92
2024/02/29 03:06:38;;;;;;;7.25;3.90;;;5.70;99.90;;;;;;5001441;28;20029;-92
2024/02/29 03:09:07;;;;;;;7.97;4.15;;;5.70;99.90;;;;;;5031673;28;20029;-95
2024/02/29 03:11:34;;;;;;;10.55;4.95;;;5.70;99.90;;;;;;5014951;28;20070;-91
2024/02/29 03:14:00;;;;;;;7.97;4.93;;;5.70;99.90;;;;;;5013928;28;20021;-92
2024/02/29 03:16:26;;;;;;;10.15;4.82;;;5.80;99.90;;;;;;5015351;28;20346;-89
2024/02/29 03:18:52;;;;;;;9.95;4.50;;;5.80;99.90;;;;;;5017288;28;20056;-91
2024/02/29 03:21:18;;;;;;;9.48;4.40;;;5.80;99.90;;;;;;5000251;28;20469;-92
2024/02/29 03:23:44;;;;;;;8.85;4.63;;;5.80;99.90;;;;;;5003995;28;20039;-91
2024/02/29 03:26:09;;;;;;;10.70;5.65;;;5.80;99.90;;;;;;5033380;28;20053;-90
2024/02/29 03:28:35;;;;;;;9.68;4.88;;;5.80;99.90;;;;;;5013274;28;20064;-89
2024/02/29 03:31:01;;;;;;;9.50;4.72;;;5.90;99.90;;;;;;5001421;28;20041;-91
2024/02/29 03:33:26;;;;;;;9.00;4.82;;;5.90;99.90;;;;;;5017038;28;20048;-91
2024/02/29 03:35:52;;;;;;;10.77;5.63;;;5.90;99.90;;;;;;5026536;28;20050;-92
2024/02/29 03:38:18;;;;;;;8.27;4.90;;;5.90;99.90;;;;;;4994848;28;20036;-91
2024/02/29 03:40:44;;;;;;;7.43;4.38;;;5.90;99.90;;;;;;5009602;28;20057;-89
2024/02/29 03:43:10;;;;;;;8.73;4.68;;;5.90;99.90;;;;;;5030895;28;20029;-90
2024/02/29 03:45:36;;;;;;;9.35;4.90;;;5.90;99.90;;;;;;5036562;28;20021;-91
2024/02/29 03:48:02;;;;;;;9.32;5.30;;;6.00;99.90;;;;;;5030682;28;20022;-92
2024/02/29 03:50:28;;;;;;;10.35;5.40;;;6.00;99.90;;;;;;5014066;28;20034;-91
2024/02/29 03:52:53;;;;;;;7.75;4.32;;;6.00;99.90;;;;;;5016317;28;20021;-96
2024/02/29 03:55:19;;;;;;;9.32;4.50;;;5.90;99.90;;;;;;5011652;28;20083;-90
2024/02/29 03:57:45;;;;;;;5.93;3.20;;;6.00;99.90;;;;;;5015528;28;20021;-90
2024/02/29 04:00:11;;;;;;;9.52;4.25;;;6.00;99.90;;;;;;4998951;28;20033;-90
2024/02/29 04:02:38;;;;;;;6.93;3.92;;;6.00;99.90;;;;;;4997667;28;20592;-91
2024/02/29 04:05:10;;;;;;;7.15;3.30;;;6.00;99.90;;;;;;4999085;28;20103;-92
2024/02/29 04:07:37;;;;;;;6.78;3.13;;;6.00;99.90;;;;;;4998996;28;20541;-92
2024/02/29 04:10:05;;;;;;;8.50;4.20;;;6.00;99.90;;;;;;5004769;28;20029;-92
2024/02/29 04:12:31;;;;;;;7.90;4.53;;;6.00;99.90;;;;;;5035190;28;20034;-90
2024/02/29 04:14:56;;;;;;;10.57;4.82;;;6.00;99.90;;;;;;5014401;28;20493;-91
2024/02/29 04:17:22;;;;;;;7.75;4.03;;;6.00;99.90;;;;;;5015084;28;20045;-91
2024/02/29 04:19:49;;;;;;;6.65;3.72;;;6.00;99.90;;;;;;5011683;28;20033;-92
2024/02/29 04:22:15;;;;;;;7.07;3.92;;;6.00;99.90;;;;;;5017070;28;20033;-93
2024/02/29 04:24:40;;;;;;;10.13;4.95;;;6.00;99.90;;;;;;5013182;28;20028;-92
2024/02/29 04:27:06;;;;;;;9.30;4.95;;;6.00;99.90;;;;;;5017688;28;20128;-93
2024/02/29 04:29:32;;;;;;;7.97;4.55;;;6.00;99.90;;;;;;5005226;28;20120;-94
2024/02/29 04:31:58;;;;;;;8.95;4.28;;;6.00;99.90;;;;;;5035101;28;20059;-92
2024/02/29 04:34:24;;;;;;;7.72;4.03;;;6.00;99.90;;;;;;5035933;28;20510;-92
2024/02/29 04:36:49;;;;;;;7.97;4.28;;;6.00;99.90;;;;;;5020545;28;20065;-92
2024/02/29 04:39:15;;;;;;;8.70;4.45;;;6.00;99.90;;;;;;5014863;28;20120;-92
2024/02/29 04:41:41;;;;;;;11.68;6.10;;;6.00;99.90;;;;;;5031064;28;20029;-92
2024/02/29 04:44:07;;;;;;;8.15;4.63;;;6.00;99.90;;;;;;5001745;28;20033;-94
2024/02/29 04:46:33;;;;;;;8.20;4.15;;;6.10;99.90;;;;;;4998635;28;20057;-91
2024/02/29 04:48:59;;;;;;;6.53;4.05;;;6.00;99.90;;;;;;5019053;28;20056;-91
2024/02/29 04:51:24;;;;;;;7.28;4.47;;;6.00;99.90;;;;;;4999689;28;20390;-92
2024/02/29 04:53:50;;;;;;;8.80;4.07;;;6.00;99.90;;;;;;5020129;28;20032;-93
2024/02/29 04:56:16;;;;;;;5.28;3.20;;;6.10;99.90;;;;;;5005004;28;20026;-92
2024/02/29 04:58:41;;;;;;;6.65;3.55;;;6.10;99.90;;;;;;5020605;28;20432;-93
2024/02/29 05:01:07;;;;;;;10.95;5.10;;;6.10;99.90;;;;;;5005588;28;20026;-94
2024/02/29 05:03:33;;;;;;;8.95;4.35;;;6.10;99.90;;;;;;5012611;28;20030;-93
2024/02/29 05:05:59;;;;;;;7.93;4.30;;;6.10;99.90;;;;;;5016838;28;20043;-93
2024/02/29 05:08:25;;;;;;;8.68;3.90;;;6.20;99.90;;;;;;5035309;28;20056;-90
2024/02/29 05:10:51;;;;;;;8.05;4.45;;;6.10;99.90;;;;;;4999671;28;20040;-91
2024/02/29 05:13:20;;;;;;;6.25;3.60;;;6.20;99.90;;;;;;5013702;28;20228;-91
2024/02/29 05:15:46;;;;;;;10.07;3.70;;;6.20;99.90;;;;;;5034121;28;20037;-92
2024/02/29 05:18:12;;;;;;;6.70;3.30;;;6.20;99.90;;;;;;4998655;28;20025;-90
2024/02/29 05:20:38;;;;;;;8.18;4.75;;;6.20;99.90;;;;;;5019975;28;20505;-92
2024/02/29 05:23:04;;;;;;;10.38;5.53;;;6.20;99.90;;;;;;5018209;28;20036;-94
2024/02/29 05:25:29;;;;;;;8.75;4.78;;;6.30;99.90;;;;;;5018661;28;20480;-91
2024/02/29 05:27:55;;;;;;;5.32;2.97;;;6.30;99.90;;;;;;5000201;28;20588;-92
2024/02/29 05:30:21;;;;;;;6.60;3.28;;;6.30;99.90;;;;;;5016529;28;20030;-91
2024/02/29 05:32:49;;;;;;;10.25;5.93;;;6.30;99.90;;;;;;5030230;28;20083;-94
2024/02/29 05:35:15;;;;;;;9.15;4.55;;;6.40;99.90;;;;;;5016991;28;20052;-92
2024/02/29 05:37:41;;;;;;;7.82;4.70;;;6.40;99.90;;;;;;5016525;28;20473;-90
2024/02/29 05:40:07;;;;;;;9.48;4.20;;;6.40;99.90;;;;;;5004790;28;20026;-91
2024/02/29 05:42:33;;;;;;;7.68;3.83;;;6.50;99.90;;;;;;5035431;28;20033;-92
2024/02/29 05:44:59;;;;;;;9.38;3.78;;;6.40;99.90;;;;;;4999197;28;20086;-91
2024/02/29 05:47:25;;;;;;;5.20;3.50;;;6.50;99.90;;;;;;5018169;28;20040;-92
2024/02/29 05:49:51;;;;;;;7.30;4.35;;;6.50;99.90;;;;;;5000918;28;20033;-92
2024/02/29 05:52:19;;;;;;;8.52;4.43;;;6.50;99.90;;;;;;5005087;28;20021;-92
2024/02/29 05:54:45;;;;;;;7.25;3.90;;;6.50;99.90;;;;;;4995546;28;20026;-91
2024/02/29 05:57:11;;;;;;;6.60;3.53;;;6.50;99.90;;;;;;4998672;28;20038;-91
2024/02/29 05:59:37;;;;;;;7.35;4.07;;;6.50;99.90;;;;;;4995960;28;20111;-91
2024/02/29 06:02:02;;;;;;;7.13;4.55;;;6.50;99.90;;;;;;5014342;28;20068;-91
2024/02/29 06:04:28;;;;;;;5.45;3.28;;;6.50;99.90;;;;;;5002286;28;20075;-90
2024/02/29 06:06:54;;;;;;;10.00;4.55;;;6.50;99.90;;;;;;5035545;28;20037;-89
2024/02/29 06:09:19;;;;;;;7.22;3.35;;;6.50;99.90;;;;;;5035507;28;20025;-90
2024/02/29 06:11:45;;;;;;;5.05;2.90;;;6.40;99.90;;;;;;5011415;28;20025;-90
2024/02/29 06:14:10;;;;;;;5.43;2.70;;;6.50;99.90;;;;;;5010860;28;20030;-92
2024/02/29 06:16:36;;;;;;;7.05;4.25;;;6.40;99.90;;;;;;5015898;28;20155;-90
2024/02/29 06:19:02;;;;;;;6.40;3.17;;;6.50;99.90;;;;;;5012420;28;20056;-90
2024/02/29 06:21:27;;;;;;;6.68;3.38;;;6.40;99.90;;;;;;5012594;28;20029;-91
2024/02/29 06:23:54;;;;;;;6.30;3.30;;;6.40;99.90;;;;;;5004230;28;20443;-92
2024/02/29 06:26:20;;;;;;;6.75;3.33;;;6.40;99.90;;;;;;5030854;28;20041;-92
2024/02/29 06:28:46;;;;;;;7.43;3.58;;;6.40;99.90;;;;;;5020583;28;20030;-91
2024/02/29 06:31:12;;;;;;;6.72;2.78;;;6.50;99.90;;;;;;4999105;28;20039;-90
2024/02/29 06:33:42;;;;;;;5.03;2.83;;;6.50;99.90;;;;;;5018276;28;20107;-92
2024/02/29 06:36:08;;;;;;;6.35;3.08;;;6.50;99.90;;;;;;5011814;28;20485;-90
2024/02/29 06:38:34;;;;;;;6.25;3.17;;;6.50;99.90;;;;;;5011844;28;20032;-90
2024/02/29 06:40:59;;;;;;;5.75;2.58;;;6.50;99.90;;;;;;5020230;28;20021;-90
2024/02/29 06:43:25;;;;;;;6.75;4.07;;;6.50;99.90;;;;;;5032559;28;20381;-89
2024/02/29 06:45:51;;;;;;;6.85;3.05;;;6.50;99.90;;;;;;5011025;28;20037;-89
2024/02/29 06:48:21;;;;;;;7.43;3.65;;;6.50;99.90;;;;;;5008650;28;20029;-94
2024/02/29 06:50:46;;;;;;;8.25;3.90;;;6.50;99.90;;;;;;5018729;28;20104;-91
2024/02/29 06:53:13;;;;;;;7.25;3.67;;;6.50;99.90;;;;;;5004204;28;20561;-91
2024/02/29 06:55:38;;;;;;;4.38;2.33;;;6.50;99.90;;;;;;4998273;28;20033;-90
2024/02/29 06:58:05;;;;;;;4.85;2.70;;;6.60;99.90;;;;;;5012323;28;20030;-91
2024/02/29 07:00:32;;;;;;;8.25;3.03;;;6.60;99.90;;;;;;5011277;28;20033;-91
2024/02/29 07:02:57;;;;;;;8.55;4.22;;;6.50;99.90;;;;;;5014110;28;20363;-91
2024/02/29 07:05:23;;;;;;;5.63;3.33;;;6.50;99.90;;;;;;4998262;28;20028;-91
2024/02/29 07:07:52;;;;;;;6.07;3.40;;;6.50;99.90;;;;;;4994926;28;20501;-92
2024/02/29 07:10:19;;;;;;;4.33;2.87;;;6.50;99.90;;;;;;5009794;28;20036;-91
2024/02/29 07:12:45;;;;;;;5.85;3.13;;;6.60;99.90;;;;;;5010466;28;20779;-95
2024/02/29 07:15:12;;;;;;;5.07;2.67;;;6.60;99.90;;;;;;5015497;28;20064;-91
2024/02/29 07:17:38;;;;;;;6.15;3.45;;;6.60;99.90;;;;;;5000275;28;20037;-90
2024/02/29 07:20:04;;;;;;;8.23;3.47;;;6.60;99.90;;;;;;4999128;28;20029;-91
2024/02/29 07:22:31;;;;;;;6.82;3.13;;;6.60;99.90;;;;;;5013481;28;20040;-92
2024/02/29 07:24:57;;;;;;;4.78;2.15;;;6.70;99.90;;;;;;4997222;28;20056;-94
2024/02/29 07:27:23;;;;;;;8.32;3.78;;;6.70;99.90;;;;;;5014106;28;20421;-91
2024/02/29 07:29:48;;;;;;;7.88;3.42;;;6.70;99.90;;;;;;5010435;28;20021;-90
2024/02/29 07:32:14;;;;;;;5.38;2.65;;;6.70;99.90;;;;;;4997793;28;20029;-92
2024/02/29 07:34:40;;;;;;;4.60;2.80;;;6.70;99.90;;;;;;5032690;28;20029;-90
2024/02/29 07:37:05;;;;;;;5.18;2.95;;;6.70;99.90;;;;;;5011931;28;20048;-91
2024/02/29 07:39:31;;;;;;;4.25;2.22;;;6.70;99.90;;;;;;5035042;28;20104;-92
2024/02/29 07:41:57;;;;;;;6.22;2.97;;;6.70;99.90;;;;;;5018192;28;20041;-91
2024/02/29 07:44:24;;;;;;;5.55;2.50;;;6.70;99.90;;;;;;5015267;28;20026;-90
2024/02/29 07:46:49;;;;;;;5.95;3.33;;;6.70;99.90;;;;;;5018640;28;20651;-93
2024/02/29 07:49:15;;;;;;;7.00;4.07;;;6.60;99.90;;;;;;5020839;28;20025;-91
2024/02/29 07:51:40;;;;;;;7.20;3.92;;;6.60;99.90;;;;;;5002321;28;20075;-92
2024/02/29 07:54:06;;;;;;;6.53;3.40;;;6.60;99.90;;;;;;5002747;28;20557;-90
2024/02/29 07:56:32;;;;;;;6.05;3.22;;;6.60;99.90;;;;;;5015617;28;20497;-89
2024/02/29 07:58:58;;;;;;;5.43;2.97;;;6.60;99.90;;;;;;5015233;28;20025;-90
2024/02/29 08:01:24;;;;;;;5.65;3.05;;;6.60;99.90;;;;;;5021030;28;20035;-90
2024/02/29 08:04:19;;;;;;;5.20;3.40;;;6.60;99.90;;;;;;5019390;28;20021;-90
2024/02/29 08:06:45;;;;;;;4.30;2.30;;;6.50;99.90;;;;;;5000908;28;20049;-95
2024/02/29 08:09:13;;;;;;;4.60;2.17;;;6.60;99.90;;;;;;5001197;28;20053;-90
2024/02/29 08:11:39;;;;;;;5.65;3.05;;;6.60;99.90;;;;;;5018182;28;20037;-90
2024/02/29 08:14:04;;;;;;;6.07;2.67;;;6.50;99.90;;;;;;5017662;28;20413;-90
2024/02/29 08:16:30;;;;;;;5.05;2.63;;;6.50;99.90;;;;;;5017644;28;20401;-91
2024/02/29 08:18:56;;;;;;;5.82;2.70;;;6.50;99.90;;;;;;5001840;28;20375;-93
2024/02/29 08:21:21;;;;;;;5.38;3.38;;;6.60;99.90;;;;;;5038791;28;20202;-93
2024/02/29 08:23:47;;;;;;;8.40;3.72;;;6.50;99.90;;;;;;5035225;28;20038;-95
2024/02/29 08:26:13;;;;;;;6.47;4.25;;;6.50;99.90;;;;;;5018011;28;20029;-93
2024/02/29 08:28:42;;;;;;;8.98;3.90;;;6.50;99.90;;;;;;4997697;28;20516;-93
2024/02/29 08:31:07;;;;;;;5.68;2.85;;;6.50;99.90;;;;;;5031742;28;20078;-93
2024/02/29 08:33:33;;;;;;;7.13;3.92;;;6.50;99.90;;;;;;5017832;28;20116;-93
2024/02/29 08:36:02;;;;;;;7.18;3.70;;;6.50;99.90;;;;;;4983900;28;20050;-95
2024/02/29 08:38:28;;;;;;;6.55;3.40;;;6.50;99.90;;;;;;4995812;28;20045;-96
2024/02/29 08:40:54;;;;;;;8.07;3.65;;;6.50;99.90;;;;;;4973810;28;20030;-93
2024/02/29 08:43:20;;;;;;;6.60;4.13;;;6.60;99.90;;;;;;4987960;28;20425;-94
2024/02/29 08:45:49;;;;;;;8.70;4.53;;;6.50;99.90;;;;;;5004465;28;20385;-96
2024/02/29 08:48:19;;;;;;;7.00;3.73;;;6.50;99.90;;;;;;4978898;28;20145;-94
2024/02/29 08:50:49;;;;;;;7.50;4.40;;;6.50;99.90;;;;;;5011626;28;20037;-94
2024/02/29 08:53:15;;;;;;;7.43;4.28;;;6.60;99.90;;;;;;4995741;28;20038;-94
2024/02/29 08:55:43;;;;;;;9.13;3.90;;;6.60;99.90;;;;;;4971322;28;20033;-94
2024/02/29 08:58:13;;;;;;;9.80;4.93;;;6.70;99.90;;;;;;4994149;28;20117;-94
2024/02/29 09:00:48;;;;;;;9.20;5.25;;;6.70;99.90;;;;;;5016682;28;20140;-95
2024/02/29 09:03:15;;;;;;;10.25;4.80;;;6.80;99.90;;;;;;5011784;28;20145;-93
2024/02/29 09:05:44;;;;;;;9.02;5.05;;;6.90;99.90;;;;;;4996502;28;20041;-95
2024/02/29 09:08:19;;;;;;;11.57;5.85;;;6.90;99.90;;;;;;4994748;28;20040;-95
2024/02/29 09:10:45;;;;;;;9.43;5.03;;;6.90;99.90;;;;;;4992369;28;20057;-93
2024/02/29 09:13:10;;;;;;;9.60;5.32;;;7.00;99.90;;;;;;4976208;28;20093;-93
2024/02/29 09:15:37;;;;;;;7.57;4.30;;;7.10;99.90;;;;;;5009750;28;20132;-92
2024/02/29 09:18:04;;;;;;;9.13;3.70;;;7.10;99.90;;;;;;4986211;28;20061;-92
2024/02/29 09:20:30;;;;;;;9.25;4.53;;;7.20;99.90;;;;;;5008114;28;20041;-92
2024/02/29 09:22:56;;;;;;;7.40;4.90;;;7.30;99.90;;;;;;4971676;28;20057;-93
2024/02/29 09:25:22;;;;;;;8.48;4.47;;;7.30;99.90;;;;;;5009234;28;20064;-94
2024/02/29 09:27:47;;;;;;;6.40;3.53;;;7.30;99.90;;;;;;4993446;28;20545;-92
2024/02/29 09:30:13;;;;;;;6.78;3.00;;;7.40;99.90;;;;;;4993456;28;20057;-92
2024/02/29 09:32:39;;;;;;;7.78;4.03;;;7.50;99.90;;;;;;4976888;28;20034;-92
2024/02/29 09:35:06;;;;;;;8.73;4.07;;;7.50;99.90;;;;;;5011162;28;20059;-91
2024/02/29 09:37:32;;;;;;;6.88;3.90;;;7.60;99.90;;;;;;4993301;28;20337;-92
2024/02/29 09:39:58;;;;;;;7.63;3.38;;;7.60;99.90;;;;;;4989360;28;20026;-91
2024/02/29 09:42:26;;;;;;;7.43;3.22;;;7.80;99.90;;;;;;4992375;28;20487;-90
2024/02/29 09:44:52;;;;;;;6.75;3.65;;;7.80;99.90;;;;;;5006772;28;20026;-92
2024/02/29 09:47:20;;;;;;;8.45;4.20;;;7.80;99.90;;;;;;4987766;28;20482;-91
2024/02/29 09:49:47;;;;;;;7.25;3.70;;;7.90;99.90;;;;;;4991538;28;20771;-93
2024/02/29 09:52:13;;;;;;;8.23;5.07;;;8.00;99.90;;;;;;4985875;28;20038;-93
2024/02/29 09:54:42;;;;;;;7.53;4.45;;;8.00;99.90;;;;;;4985177;28;20037;-89
2024/02/29 09:57:09;;;;;;;6.80;4.53;;;8.10;99.90;;;;;;4990190;28;20088;-90
2024/02/29 09:59:37;;;;;;;8.85;4.55;;;8.10;99.90;;;;;;4988576;28;20038;-91
2024/02/29 10:02:05;;;;;;;5.53;3.25;;;8.20;99.90;;;;;;4989834;28;20173;-91
2024/02/29 10:04:31;;;;;;;8.15;3.63;;;8.30;99.90;;;;;;4987823;28;20040;-92
2024/02/29 10:06:57;;;;;;;6.50;3.83;;;8.30;99.90;;;;;;4992399;28;20038;-89
2024/02/29 10:09:24;;;;;;;7.78;5.07;;;8.30;99.90;;;;;;4990840;28;20140;-90
2024/02/29 10:11:53;;;;;;;6.75;3.97;;;8.30;99.90;;;;;;4986087;28;20168;-90
2024/02/29 10:14:26;;;;;;;5.95;3.25;;;8.40;99.90;;;;;;4994443;28;20110;-91
2024/02/29 10:16:52;;;;;;;6.07;3.40;;;8.50;99.90;;;;;;4993045;28;20042;-92
2024/02/29 10:19:22;;;;;;;9.32;4.90;;;8.40;99.90;;;;;;4989521;28;20080;-90
2024/02/29 10:21:48;;;;;;;;;;;8.50;99.90;;;;;;4988300;28;20092;-93
2024/02/29 10:24:14;;;;;;;5.28;3.20;;;8.50;99.90;;;;;;4991703;28;19917;-91
2024/02/29 10:26:40;;;;;;;7.07;3.60;;;8.50;99.90;;;;;;4988238;28;20026;-93
2024/02/29 10:29:10;;;;;;;5.95;3.92;;;8.50;99.90;;;;;;4987254;28;20033;-91
2024/02/29 10:31:35;;;;;;;6.63;4.28;;;8.40;99.90;;;;;;4984417;28;20121;-94
2024/02/29 10:34:01;;;;;;;7.75;4.55;;;8.50;99.90;;;;;;4985492;28;20128;-93
2024/02/29 10:36:27;;;;;;;6.20;3.50;;;8.50;99.90;;;;;;5009744;28;20084;-91
2024/02/29 10:38:55;;;;;;;5.93;3.30;;;8.50;99.90;;;;;;4989485;28;20064;-92
2024/02/29 10:41:21;;;;;;;7.50;4.60;;;8.60;99.90;;;;;;4987980;28;20085;-91
2024/02/29 10:43:50;;;;;;;9.13;4.13;;;8.60;99.90;;;;;;4970756;28;20034;-91
2024/02/29 10:46:19;;;;;;;8.15;4.68;;;8.60;99.90;;;;;;4987734;28;20026;-92
2024/02/29 10:49:03;;;;;;;7.97;4.47;;;8.60;99.90;;;;;;4985047;28;20038;-96
2024/02/29 10:51:52;;;;;;;6.43;3.17;;;8.60;99.90;;;;;;5004076;28;20270;-92
2024/02/29 10:54:23;;;;;;;6.60;4.32;;;8.70;99.90;;;;;;4989598;28;20434;-94
2024/02/29 10:56:54;;;;;;;8.02;3.90;;;8.60;99.90;;;;;;4986797;28;20048;-92
2024/02/29 10:59:20;;;;;;;6.28;3.42;;;8.60;99.90;;;;;;4990415;28;20196;-92
2024/02/29 11:01:47;;;;;;;6.95;4.00;;;8.70;99.90;;;;;;4971337;28;20615;-90
2024/02/29 11:04:16;;;;;;;6.35;3.80;;;8.70;99.90;;;;;;4987633;28;20030;-91
2024/02/29 11:06:47;;;;;;;7.07;3.33;;;8.70;99.90;;;;;;4984157;28;20026;-91
2024/02/29 11:09:15;;;;;;;5.13;3.53;;;8.70;99.90;;;;;;4987521;28;20079;-93
2024/02/29 11:11:42;;;;;;;7.30;3.30;;;8.80;99.90;;;;;;4993587;28;20048;-92
2024/02/29 11:14:11;;;;;;;5.53;2.75;;;8.80;99.90;;;;;;4987419;28;20041;-94
2024/02/29 11:16:46;;;;;;;5.47;2.00;;;8.90;99.90;;;;;;4987668;28;20076;-92
2024/02/29 11:19:17;;;;;;;5.57;2.58;;;8.90;99.90;;;;;;4991714;28;20029;-92
2024/02/29 11:21:43;;;;;;;5.47;3.28;;;8.80;99.90;;;;;;4988085;28;20030;-92
2024/02/29 11:24:16;;;;;;;5.97;3.60;;;8.80;99.90;;;;;;5001928;28;20387;-92
2024/02/29 11:26:45;;;;;;;5.25;3.90;;;8.80;99.90;;;;;;4985720;28;20037;-92
2024/02/29 11:29:12;;;;;;;5.65;3.20;;;8.80;99.90;;;;;;5007987;28;20068;-92
2024/02/29 11:31:43;;;;;;;7.03;2.88;;;8.80;99.90;;;;;;4971462;28;20543;-93
2024/02/29 11:34:09;;;;;;;3.92;2.17;;;8.80;99.90;;;;;;5008235;28;20018;-91
2024/02/29 11:36:36;;;;;;;3.17;1.70;;;8.90;99.90;;;;;;4971131;28;20045;-90
2024/02/29 11:39:03;;;;;;;3.92;2.28;;;8.80;99.90;;;;;;5006696;28;20033;-93
2024/02/29 11:41:30;;;;;;;4.85;2.38;;;8.70;99.90;;;;;;4985065;28;20025;-94
2024/02/29 11:43:56;;;;;;;5.28;2.53;;;8.70;99.90;;;;;;4987253;28;20022;-95
2024/02/29 11:46:22;;;;;;;6.63;3.40;;;8.70;99.90;;;;;;4975481;28;20513;-92
2024/02/29 11:48:52;;;;;;;3.67;2.05;;;8.70;99.90;;;;;;4971006;28;20018;-91
2024/02/29 11:51:17;;;;;;;4.32;1.90;;;8.70;99.90;;;;;;4986149;28;20022;-92
2024/02/29 11:53:43;;;;;;;4.25;1.95;;;8.70;99.90;;;;;;4990882;28;20041;-92
2024/02/29 11:56:09;;;;;;;2.95;1.30;;;8.80;99.90;;;;;;4970144;28;20038;-93
2024/02/29 11:58:35;;;;;;;3.38;1.48;;;8.80;99.90;;;;;;4991753;28;20045;-92
2024/02/29 12:01:01;;;;;;;3.60;1.67;;;8.80;99.90;;;;;;4983563;28;20022;-92
2024/02/29 12:03:30;;;;;;;2.92;1.27;;;8.70;99.90;;;;;;4993085;28;20038;-94
2024/02/29 12:05:57;;;;;;;3.15;1.42;;;8.80;99.90;;;;;;4968955;28;20026;-92
2024/02/29 12:08:27;;;;;;;4.40;2.40;;;8.80;99.90;;;;;;4971167;28;20108;-93
2024/02/29 12:10:59;;;;;;;4.88;2.38;;;8.80;99.90;;;;;;4988389;28;20396;-91
2024/02/29 12:13:29;;;;;;;3.45;1.60;;;8.90;99.90;;;;;;4970853;28;20129;-93
2024/02/29 12:15:55;;;;;;;3.17;1.30;;;8.90;99.90;;;;;;5008628;28;20096;-94
2024/02/29 12:18:22;;;;;;;3.35;1.55;;;8.90;99.90;;;;;;4991377;28;20045;-92
2024/02/29 12:20:49;;;;;;;4.75;2.22;;;8.90;99.90;;;;;;4984563;28;20034;-94
2024/02/29 12:23:19;;;;;;;4.05;2.40;;;8.80;99.90;;;;;;4985347;28;20037;-91
2024/02/29 12:25:45;;;;;;;4.65;1.92;;;8.80;99.90;;;;;;4989826;28;20403;-92
2024/02/29 12:28:13;;;;;;;3.20;2.00;;;8.90;99.90;;;;;;4989594;28;20026;-93
2024/02/29 12:30:38;;;;;;;3.35;1.80;;;8.90;99.90;;;;;;5013343;28;20108;-95
2024/02/29 12:33:12;;;;;;;4.00;2.05;;;8.80;99.90;;;;;;4989680;28;20399;-93
2024/02/29 12:35:38;;;;;;;3.65;1.83;;;8.80;99.90;;;;;;4991400;28;20060;-93
2024/02/29 12:38:04;;;;;;;3.20;1.35;;;8.80;99.90;;;;;;4977786;28;20030;-95
2024/02/29 12:40:32;;;;;;;2.92;1.67;;;8.80;99.90;;;;;;4993770;28;20541;-95
2024/02/29 12:42:58;;;;;;;3.38;1.48;;;8.80;99.90;;;;;;4989617;28;20045;-92
2024/02/29 12:45:26;;;;;;;2.83;1.20;;;8.80;99.90;;;;;;4993970;28;20418;-93
2024/02/29 12:47:54;;;;;;;2.50;1.23;;;8.80;99.90;;;;;;4978511;28;20045;-91
2024/02/29 12:50:21;;;;;;;4.50;2.05;;;8.80;99.90;;;;;;4991368;28;20038;-94
2024/02/29 12:52:53;;;;;;;2.70;1.38;;;8.80;99.90;;;;;;4989373;28;20044;-95